createdAt,value
2022-08-26T00:00:12.038Z,99398.31
2022-08-26T00:00:46.405Z,99392.41
2022-08-26T00:01:19.149Z,99396.12
2022-08-26T00:02:01.487Z,99397.03
2022-08-26T00:02:33.671Z,99392.44
2022-08-26T00:03:05.714Z,99398.31
2022-08-26T00:03:39.406Z,99396.88
2022-08-26T00:04:12.334Z,99393.09
2022-08-26T00:04:44.338Z,99394.81
2022-08-26T00:05:16.593Z,99393.91
2022-08-26T00:05:50.891Z,99390.94
2022-08-26T00:06:23.253Z,99397.34
2022-08-26T00:06:56.708Z,99392.81
2022-08-26T00:07:28.640Z,99393.91
2022-08-26T00:08:01.395Z,99400.03
2022-08-26T00:08:33.701Z,99396.69
2022-08-26T00:09:08.042Z,99394.19
2022-08-26T00:09:40.559Z,99395.28
2022-08-26T00:10:12.578Z,99398.03
2022-08-26T00:10:44.664Z,99396.03
2022-08-26T00:11:26.341Z,99396.81
2022-08-26T00:11:59.313Z,99397.25
2022-08-26T00:12:37.540Z,99395.66
2022-08-26T00:13:11.103Z,99395.28
2022-08-26T00:13:47.777Z,99397.25
2022-08-26T00:14:22.880Z,99393.97
2022-08-26T00:14:56.147Z,99394.47
2022-08-26T00:15:28.176Z,99395.75
2022-08-26T00:16:00.568Z,99396.75
2022-08-26T00:16:32.600Z,99394.69
2022-08-26T00:17:05.243Z,99394.97
2022-08-26T00:17:41.237Z,99395.88
2022-08-26T00:18:22.420Z,99398.06
2022-08-26T00:18:54.589Z,99394.69
2022-08-26T00:19:26.607Z,99399.63
2022-08-26T00:19:58.535Z,99394.13
2022-08-26T00:20:32.801Z,99399.25
2022-08-26T00:21:06.961Z,99396.97
2022-08-26T00:21:38.901Z,99398.25
2022-08-26T00:22:11.147Z,99393.91
2022-08-26T00:22:43.741Z,99394.19
2022-08-26T00:23:15.674Z,99392.81
2022-08-26T00:23:48.456Z,99394.19
2022-08-26T00:24:21.789Z,99396.25
2022-08-26T00:24:54.584Z,99394.69
2022-08-26T00:25:27.265Z,99401.91
2022-08-26T00:25:59.331Z,99394.47
2022-08-26T00:26:34.936Z,99391.91
2022-08-26T00:27:06.963Z,99397.16
2022-08-26T00:27:40.471Z,99395.53
2022-08-26T00:28:13.134Z,99389.97
2022-08-26T00:28:46.052Z,99399.03
2022-08-26T00:29:18.445Z,99388.97
2022-08-26T00:29:50.579Z,99386.59
2022-08-26T00:30:26.707Z,99387.03
2022-08-26T00:30:58.625Z,99383.66
2022-08-26T00:31:31.421Z,99386.16
2022-08-26T00:32:03.969Z,99385.81
2022-08-26T00:32:36.198Z,99383.66
2022-08-26T00:33:09.877Z,99387.88
2022-08-26T00:33:43.165Z,99388.59
2022-08-26T00:34:19.225Z,99378.66
2022-08-26T00:34:51.550Z,99386.06
2022-08-26T00:35:25.318Z,99384.25
2022-08-26T00:36:01.717Z,99379.91
2022-08-26T00:36:34.469Z,99383.37
2022-08-26T00:37:09.838Z,99381.09
2022-08-26T00:37:43.407Z,99386.25
2022-08-26T00:38:15.974Z,99380.22
2022-08-26T00:38:48.145Z,99379.16
2022-08-26T00:39:20.950Z,99385.75
2022-08-26T00:39:52.958Z,99381.72
2022-08-26T00:40:33.327Z,99385.66
2022-08-26T00:41:06.217Z,99375.78
2022-08-26T00:41:40.806Z,99379.72
2022-08-26T00:42:13.047Z,99379.53
2022-08-26T00:42:45.970Z,99377.78
2022-08-26T00:43:19.492Z,99380.84
2022-08-26T00:43:51.967Z,99377.28
2022-08-26T00:44:24.795Z,99381.72
2022-08-26T00:44:57.730Z,99372.84
2022-08-26T00:45:39.694Z,99371.28
2022-08-26T00:46:19.795Z,99379.16
2022-08-26T00:46:59.975Z,99378.72
2022-08-26T00:47:34.382Z,99381.72
2022-08-26T00:48:07.866Z,99374.22
2022-08-26T00:48:44.008Z,99377.00
2022-08-26T00:49:44.375Z,99383.09
2022-08-26T00:50:23.154Z,99376.00
2022-08-26T00:50:58.646Z,99380.34
2022-08-26T00:51:31.681Z,99375.72
2022-08-26T00:52:06.979Z,99378.16
2022-08-26T00:52:42.933Z,99376.19
2022-08-26T00:53:23.859Z,99379.16
2022-08-26T00:54:03.903Z,99376.50
2022-08-26T00:54:45.219Z,99385.66
2022-08-26T00:55:27.520Z,99380.59
2022-08-26T00:56:17.790Z,99387.59
2022-08-26T00:57:00.112Z,99379.53
2022-08-26T00:57:34.338Z,99378.63
2022-08-26T00:58:07.474Z,99381.50
2022-08-26T00:58:43.085Z,99384.66
2022-08-26T00:59:17.919Z,99378.72
2022-08-26T00:59:56.875Z,99384.47
2022-08-26T01:00:31.223Z,99383.87
2022-08-26T01:01:03.522Z,99384.47
2022-08-26T01:01:38.104Z,99376.00
2022-08-26T01:02:20.881Z,99381.50
2022-08-26T01:02:56.039Z,99377.16
2022-08-26T01:03:31.290Z,99378.56
2022-08-26T01:04:03.437Z,99378.16
2022-08-26T01:04:38.560Z,99373.63
2022-08-26T01:05:11.707Z,99383.66
2022-08-26T01:05:44.124Z,99374.50
2022-08-26T01:06:16.304Z,99379.34
2022-08-26T01:06:52.553Z,99378.84
2022-08-26T01:07:30.305Z,99376.78
2022-08-26T01:08:03.748Z,99386.53
2022-08-26T01:08:35.955Z,99393.53
2022-08-26T01:09:08.264Z,99387.16
2022-08-26T01:09:40.755Z,99382.88
2022-08-26T01:10:17.306Z,99381.81
2022-08-26T01:10:49.329Z,99381.50
2022-08-26T01:11:23.228Z,99383.09
2022-08-26T01:11:59.226Z,99382.78
2022-08-26T01:12:36.755Z,99374.69
2022-08-26T01:13:12.453Z,99387.72
2022-08-26T01:13:44.460Z,99388.50
2022-08-26T01:14:20.115Z,99377.94
2022-08-26T01:14:52.596Z,99382.22
2022-08-26T01:15:35.652Z,99380.12
2022-08-26T01:16:11.878Z,99393.94
2022-08-26T01:16:44.342Z,99389.59
2022-08-26T01:17:17.278Z,99381.94
2022-08-26T01:17:49.835Z,99387.94
2022-08-26T01:18:22.390Z,99388.81
2022-08-26T01:19:09.759Z,99389.59
2022-08-26T01:19:44.883Z,99387.25
2022-08-26T01:20:46.111Z,99386.84
2022-08-26T01:21:40.582Z,99385.97
2022-08-26T01:22:26.621Z,99386.88
2022-08-26T01:23:05.207Z,99382.94
2022-08-26T01:23:48.037Z,99388.94
2022-08-26T01:24:20.045Z,99382.44
2022-08-26T01:24:52.166Z,99379.09
2022-08-26T01:25:29.524Z,99386.28
2022-08-26T01:26:08.811Z,99385.19
2022-08-26T01:26:52.881Z,99388.53
2022-08-26T01:27:25.352Z,99385.28
2022-08-26T01:28:00.006Z,99379.94
2022-08-26T01:28:34.083Z,99380.44
2022-08-26T01:29:12.791Z,99381.66
2022-08-26T01:29:47.212Z,99373.84
2022-08-26T01:30:21.375Z,99383.59
2022-08-26T01:30:56.838Z,99379.28
2022-08-26T01:31:35.567Z,99381.53
2022-08-26T01:32:11.736Z,99373.66
2022-08-26T01:32:44.706Z,99375.53
2022-08-26T01:33:21.027Z,99383.53
2022-08-26T01:34:00.413Z,99378.81
2022-08-26T01:34:37.614Z,99380.88
2022-08-26T01:35:09.949Z,99372.38
2022-08-26T01:35:42.960Z,99384.03
2022-08-26T01:36:15.322Z,99383.91
2022-08-26T01:36:54.448Z,99376.03
2022-08-26T01:37:33.196Z,99380.09
2022-08-26T01:38:05.265Z,99377.50
2022-08-26T01:38:37.277Z,99378.31
2022-08-26T01:39:10.085Z,99378.09
2022-08-26T01:39:44.945Z,99377.81
2022-08-26T01:40:24.180Z,99375.03
2022-08-26T01:40:56.684Z,99379.59
2022-08-26T01:41:30.163Z,99378.78
2022-08-26T01:42:05.292Z,99375.34
2022-08-26T01:42:43.681Z,99378.00
2022-08-26T01:43:21.927Z,99375.44
2022-08-26T01:43:55.799Z,99378.59
2022-08-26T01:44:32.519Z,99379.38
2022-08-26T01:45:14.515Z,99378.97
2022-08-26T01:45:48.236Z,99378.81
2022-08-26T01:46:23.261Z,99376.00
2022-08-26T01:46:57.418Z,99380.34
2022-08-26T01:47:32.039Z,99384.09
2022-08-26T01:48:09.045Z,99379.94
2022-08-26T01:48:43.856Z,99377.81
2022-08-26T01:49:16.615Z,99380.16
2022-08-26T01:49:53.712Z,99381.13
2022-08-26T01:50:33.055Z,99371.28
2022-08-26T01:51:07.825Z,99375.72
2022-08-26T01:51:40.992Z,99377.81
2022-08-26T01:52:20.684Z,99374.25
2022-08-26T01:52:54.949Z,99381.44
2022-08-26T01:53:27.219Z,99372.25
2022-08-26T01:54:00.982Z,99375.63
2022-08-26T01:54:35.406Z,99377.47
2022-08-26T01:55:09.061Z,99371.28
2022-08-26T01:55:44.498Z,99373.84
2022-08-26T01:56:16.891Z,99377.47
2022-08-26T01:56:49.416Z,99373.44
2022-08-26T01:57:23.407Z,99371.19
2022-08-26T01:57:57.435Z,99370.09
2022-08-26T01:58:42.777Z,99372.84
2022-08-26T01:59:17.041Z,99365.75
2022-08-26T01:59:50.799Z,99372.06
2022-08-26T02:00:24.589Z,99378.97
2022-08-26T02:00:57.325Z,99382.91
2022-08-26T02:01:29.701Z,99372.28
2022-08-26T02:02:02.954Z,99373.06
2022-08-26T02:02:35.016Z,99376.00
2022-08-26T02:03:17.254Z,99378.47
2022-08-26T02:03:58.625Z,99376.41
2022-08-26T02:04:34.499Z,99368.72
2022-08-26T02:05:11.292Z,99368.81
2022-08-26T02:05:45.787Z,99369.22
2022-08-26T02:06:21.310Z,99375.03
2022-08-26T02:06:53.782Z,99372.56
2022-08-26T02:07:27.172Z,99365.56
2022-08-26T02:07:59.090Z,99375.03
2022-08-26T02:08:38.591Z,99371.47
2022-08-26T02:09:11.920Z,99369.41
2022-08-26T02:09:43.909Z,99368.13
2022-08-26T02:10:15.958Z,99371.88
2022-08-26T02:10:48.640Z,99369.91
2022-08-26T02:11:21.203Z,99371.47
2022-08-26T02:11:53.289Z,99372.25
2022-08-26T02:12:27.295Z,99371.28
2022-08-26T02:12:59.512Z,99362.22
2022-08-26T02:13:34.810Z,99368.63
2022-08-26T02:14:14.019Z,99378.09
2022-08-26T02:14:53.696Z,99373.56
2022-08-26T02:15:26.088Z,99370.50
2022-08-26T02:16:00.859Z,99366.94
2022-08-26T02:16:40.045Z,99370.41
2022-08-26T02:17:15.643Z,99366.56
2022-08-26T02:17:48.643Z,99372.06
2022-08-26T02:18:26.437Z,99369.50
2022-08-26T02:19:01.611Z,99367.13
2022-08-26T02:19:40.865Z,99369.00
2022-08-26T02:20:15.865Z,99372.66
2022-08-26T02:20:51.577Z,99370.28
2022-08-26T02:21:24.960Z,99361.81
2022-08-26T02:22:03.551Z,99364.16
2022-08-26T02:22:36.170Z,99363.00
2022-08-26T02:23:08.846Z,99372.06
2022-08-26T02:23:41.083Z,99366.94
2022-08-26T02:24:16.622Z,99373.44
2022-08-26T02:24:51.288Z,99374.63
2022-08-26T02:25:27.987Z,99373.56
2022-08-26T02:26:21.857Z,99373.25
2022-08-26T02:26:54.942Z,99370.19
2022-08-26T02:27:32.502Z,99369.13
2022-08-26T02:28:04.806Z,99373.06
2022-08-26T02:28:52.879Z,99371.28
2022-08-26T02:29:34.576Z,99372.28
2022-08-26T02:30:17.545Z,99371.97
2022-08-26T02:30:49.657Z,99370.84
2022-08-26T02:31:23.085Z,99373.16
2022-08-26T02:31:57.956Z,99376.19
2022-08-26T02:32:30.502Z,99372.06
2022-08-26T02:33:07.038Z,99373.56
2022-08-26T02:33:43.050Z,99374.25
2022-08-26T02:34:21.158Z,99364.25
2022-08-26T02:34:53.087Z,99365.94
2022-08-26T02:35:25.503Z,99367.13
2022-08-26T02:35:57.451Z,99373.66
2022-08-26T02:36:29.388Z,99370.88
2022-08-26T02:37:06.162Z,99372.66
2022-08-26T02:37:38.779Z,99370.78
2022-08-26T02:38:13.895Z,99378.47
2022-08-26T02:38:46.266Z,99373.00
2022-08-26T02:39:22.014Z,99380.91
2022-08-26T02:39:54.409Z,99363.19
2022-08-26T02:40:33.750Z,99372.06
2022-08-26T02:41:08.076Z,99374.16
2022-08-26T02:41:45.290Z,99380.53
2022-08-26T02:42:17.342Z,99376.41
2022-08-26T02:42:49.687Z,99374.72
2022-08-26T02:43:32.665Z,99376.31
2022-08-26T02:44:07.224Z,99374.84
2022-08-26T02:44:39.613Z,99368.22
2022-08-26T02:45:11.905Z,99366.03
2022-08-26T02:45:44.349Z,99372.94
2022-08-26T02:46:21.491Z,99369.91
2022-08-26T02:47:02.371Z,99372.66
2022-08-26T02:47:34.642Z,99373.16
2022-08-26T02:48:15.638Z,99367.91
2022-08-26T02:48:47.570Z,99373.06
2022-08-26T02:49:19.874Z,99370.50
2022-08-26T02:49:52.384Z,99370.69
2022-08-26T02:50:25.771Z,99364.97
2022-08-26T02:50:59.970Z,99370.41
2022-08-26T02:51:32.054Z,99372.47
2022-08-26T02:52:05.330Z,99369.78
2022-08-26T02:52:37.687Z,99367.13
2022-08-26T02:53:10.520Z,99368.22
2022-08-26T02:53:42.803Z,99366.63
2022-08-26T02:54:15.295Z,99370.50
2022-08-26T02:54:47.670Z,99374.44
2022-08-26T02:55:21.627Z,99367.81
2022-08-26T02:55:56.653Z,99365.16
2022-08-26T02:56:29.396Z,99373.75
2022-08-26T02:57:02.996Z,99373.06
2022-08-26T02:57:35.393Z,99370.09
2022-08-26T02:58:07.350Z,99379.56
2022-08-26T02:58:39.658Z,99377.56
2022-08-26T02:59:15.492Z,99374.44
2022-08-26T02:59:47.747Z,99371.19
2022-08-26T03:00:19.862Z,99368.87
2022-08-26T03:00:53.470Z,99375.91
2022-08-26T03:01:32.450Z,99374.91
2022-08-26T03:02:04.814Z,99372.56
2022-08-26T03:02:36.952Z,99370.19
2022-08-26T03:03:09.299Z,99374.91
2022-08-26T03:03:41.361Z,99372.25
2022-08-26T03:04:13.941Z,99366.91
2022-08-26T03:04:58.022Z,99377.88
2022-08-26T03:05:34.874Z,99373.66
2022-08-26T03:06:07.000Z,99371.88
2022-08-26T03:06:41.618Z,99371.69
2022-08-26T03:07:13.581Z,99370.50
2022-08-26T03:07:46.474Z,99378.94
2022-08-26T03:08:18.674Z,99374.72
2022-08-26T03:08:51.701Z,99371.78
2022-08-26T03:09:24.495Z,99378.16
2022-08-26T03:09:58.071Z,99376.09
2022-08-26T03:10:32.221Z,99374.03
2022-08-26T03:11:05.175Z,99376.87
2022-08-26T03:11:39.092Z,99376.00
2022-08-26T03:12:11.812Z,99375.56
2022-08-26T03:12:47.438Z,99375.75
2022-08-26T03:13:20.123Z,99368.19
2022-08-26T03:13:52.660Z,99369.28
2022-08-26T03:14:25.658Z,99370.44
2022-08-26T03:14:58.917Z,99374.38
2022-08-26T03:15:32.269Z,99369.28
2022-08-26T03:16:05.049Z,99372.94
2022-08-26T03:16:37.652Z,99373.06
2022-08-26T03:17:09.672Z,99376.87
2022-08-26T03:17:42.675Z,99378.75
2022-08-26T03:18:16.083Z,99372.84
2022-08-26T03:18:52.284Z,99370.09
2022-08-26T03:19:25.431Z,99367.72
2022-08-26T03:19:58.579Z,99374.81
2022-08-26T03:20:30.609Z,99367.78
2022-08-26T03:21:15.194Z,99369.06
2022-08-26T03:21:47.727Z,99366.03
2022-08-26T03:22:19.626Z,99366.53
2022-08-26T03:22:53.409Z,99368.50
2022-08-26T03:23:28.101Z,99365.34
2022-08-26T03:24:00.650Z,99367.59
2022-08-26T03:24:32.695Z,99363.06
2022-08-26T03:25:08.107Z,99370.94
2022-08-26T03:25:40.182Z,99361.00
2022-08-26T03:26:14.034Z,99356.25
2022-08-26T03:26:52.354Z,99368.06
2022-08-26T03:27:25.022Z,99364.62
2022-08-26T03:27:56.963Z,99361.69
2022-08-26T03:28:31.914Z,99356.84
2022-08-26T03:29:23.292Z,99357.53
2022-08-26T03:30:14.338Z,99359.03
2022-08-26T03:30:48.148Z,99358.03
2022-08-26T03:31:20.894Z,99359.84
2022-08-26T03:31:57.178Z,99354.47
2022-08-26T03:32:30.153Z,99360.13
2022-08-26T03:33:02.447Z,99356.19
2022-08-26T03:33:34.411Z,99366.03
2022-08-26T03:34:06.329Z,99360.31
2022-08-26T03:34:38.697Z,99359.13
2022-08-26T03:35:11.542Z,99358.56
2022-08-26T03:35:47.088Z,99356.56
2022-08-26T03:36:19.326Z,99355.00
2022-08-26T03:36:51.322Z,99360.31
2022-08-26T03:37:23.405Z,99357.75
2022-08-26T03:37:55.521Z,99361.22
2022-08-26T03:38:27.407Z,99357.12
2022-08-26T03:38:59.439Z,99362.97
2022-08-26T03:39:31.874Z,99357.56
2022-08-26T03:40:05.864Z,99357.97
2022-08-26T03:40:38.799Z,99361.69
2022-08-26T03:41:12.304Z,99363.75
2022-08-26T03:41:47.939Z,99355.97
2022-08-26T03:42:21.530Z,99360.00
2022-08-26T03:42:53.604Z,99359.63
2022-08-26T03:43:27.753Z,99360.00
2022-08-26T03:44:01.747Z,99361.09
2022-08-26T03:44:33.872Z,99357.84
2022-08-26T03:45:08.446Z,99357.25
2022-08-26T03:45:41.140Z,99360.69
2022-08-26T03:46:14.641Z,99356.25
2022-08-26T03:46:47.160Z,99353.50
2022-08-26T03:47:20.501Z,99361.28
2022-08-26T03:47:52.431Z,99361.19
2022-08-26T03:48:25.042Z,99358.03
2022-08-26T03:48:57.842Z,99361.47
2022-08-26T03:49:31.815Z,99362.38
2022-08-26T03:50:05.511Z,99359.72
2022-08-26T03:50:38.164Z,99365.03
2022-08-26T03:51:19.106Z,99355.41
2022-08-26T03:51:51.572Z,99360.41
2022-08-26T03:52:23.806Z,99360.63
2022-08-26T03:52:56.318Z,99356.19
2022-08-26T03:53:28.495Z,99356.69
2022-08-26T03:54:02.894Z,99356.47
2022-08-26T03:54:34.783Z,99368.28
2022-08-26T03:55:07.669Z,99359.53
2022-08-26T03:55:39.733Z,99360.91
2022-08-26T03:56:11.784Z,99357.66
2022-08-26T03:56:43.701Z,99355.69
2022-08-26T03:57:18.886Z,99354.69
2022-08-26T03:57:52.343Z,99353.72
2022-08-26T03:58:25.342Z,99354.09
2022-08-26T03:58:57.295Z,99353.44
2022-08-26T03:59:29.377Z,99354.47
2022-08-26T04:00:01.355Z,99350.53
2022-08-26T04:00:41.028Z,99352.03
2022-08-26T04:01:16.238Z,99354.09
2022-08-26T04:01:48.411Z,99354.69
2022-08-26T04:02:20.441Z,99352.72
2022-08-26T04:02:53.401Z,99353.59
2022-08-26T04:03:45.961Z,99350.28
2022-08-26T04:04:18.312Z,99356.62
2022-08-26T04:04:54.896Z,99351.72
2022-08-26T04:05:26.956Z,99346.34
2022-08-26T04:06:00.261Z,99347.53
2022-08-26T04:06:35.498Z,99348.69
2022-08-26T04:07:07.726Z,99351.34
2022-08-26T04:07:41.327Z,99353.50
2022-08-26T04:08:13.286Z,99351.94
2022-08-26T04:08:45.300Z,99349.28
2022-08-26T04:09:21.084Z,99354.31
2022-08-26T04:09:57.681Z,99350.06
2022-08-26T04:10:29.690Z,99352.44
2022-08-26T04:11:01.873Z,99352.63
2022-08-26T04:11:39.323Z,99351.84
2022-08-26T04:12:11.996Z,99350.28
2022-08-26T04:12:44.881Z,99353.72
2022-08-26T04:13:17.041Z,99356.84
2022-08-26T04:13:49.464Z,99358.44
2022-08-26T04:14:23.909Z,99351.44
2022-08-26T04:14:57.110Z,99348.28
2022-08-26T04:15:29.789Z,99354.09
2022-08-26T04:16:01.761Z,99357.84
2022-08-26T04:16:34.249Z,99358.25
2022-08-26T04:17:07.387Z,99350.28
2022-08-26T04:17:39.631Z,99352.72
2022-08-26T04:18:11.630Z,99350.84
2022-08-26T04:18:46.799Z,99354.50
2022-08-26T04:19:20.101Z,99353.91
2022-08-26T04:19:55.337Z,99352.75
2022-08-26T04:20:27.390Z,99355.81
2022-08-26T04:21:00.071Z,99354.72
2022-08-26T04:21:32.041Z,99354.81
2022-08-26T04:22:03.993Z,99355.72
2022-08-26T04:22:36.507Z,99352.56
2022-08-26T04:23:08.665Z,99355.81
2022-08-26T04:23:47.844Z,99354.91
2022-08-26T04:24:22.342Z,99349.91
2022-08-26T04:24:54.268Z,99355.72
2022-08-26T04:25:27.896Z,99349.50
2022-08-26T04:26:01.455Z,99354.91
2022-08-26T04:26:39.407Z,99355.91
2022-08-26T04:27:14.690Z,99356.59
2022-08-26T04:27:48.921Z,99356.28
2022-08-26T04:28:22.890Z,99355.22
2022-08-26T04:28:55.215Z,99354.13
2022-08-26T04:29:27.156Z,99352.16
2022-08-26T04:29:59.129Z,99359.34
2022-08-26T04:30:31.241Z,99349.59
2022-08-26T04:31:03.566Z,99353.34
2022-08-26T04:31:37.071Z,99360.63
2022-08-26T04:32:09.388Z,99352.06
2022-08-26T04:32:41.903Z,99355.22
2022-08-26T04:33:14.283Z,99351.59
2022-08-26T04:33:49.576Z,99351.19
2022-08-26T04:34:27.258Z,99357.28
2022-08-26T04:35:00.982Z,99350.97
2022-08-26T04:35:35.240Z,99355.22
2022-08-26T04:36:07.787Z,99352.38
2022-08-26T04:36:41.000Z,99347.66
2022-08-26T04:37:13.908Z,99351.00
2022-08-26T04:37:45.836Z,99353.84
2022-08-26T04:38:19.966Z,99348.53
2022-08-26T04:38:52.277Z,99354.63
2022-08-26T04:39:27.680Z,99346.47
2022-08-26T04:39:59.938Z,99347.66
2022-08-26T04:40:32.233Z,99348.94
2022-08-26T04:41:07.391Z,99345.97
2022-08-26T04:41:49.164Z,99345.75
2022-08-26T04:42:23.271Z,99350.63
2022-08-26T04:42:58.227Z,99346.25
2022-08-26T04:43:31.281Z,99345.56
2022-08-26T04:44:03.713Z,99350.00
2022-08-26T04:44:37.015Z,99340.13
2022-08-26T04:45:10.162Z,99343.50
2022-08-26T04:45:43.624Z,99348.62
2022-08-26T04:46:19.539Z,99347.84
2022-08-26T04:46:52.672Z,99347.75
2022-08-26T04:47:28.109Z,99352.75
2022-08-26T04:48:03.915Z,99345.66
2022-08-26T04:48:36.754Z,99352.78
2022-08-26T04:49:09.213Z,99349.03
2022-08-26T04:49:41.183Z,99348.91
2022-08-26T04:50:13.852Z,99353.84
2022-08-26T04:50:49.528Z,99345.28
2022-08-26T04:51:28.106Z,99355.31
2022-08-26T04:52:00.237Z,99340.13
2022-08-26T04:52:32.287Z,99349.22
2022-08-26T04:53:04.524Z,99347.16
2022-08-26T04:53:39.465Z,99354.44
2022-08-26T04:54:12.403Z,99350.91
2022-08-26T04:54:44.313Z,99347.06
2022-08-26T04:55:16.339Z,99351.97
2022-08-26T04:55:48.508Z,99347.44
2022-08-26T04:56:20.582Z,99352.19
2022-08-26T04:56:53.150Z,99351.00
2022-08-26T04:57:25.215Z,99351.31
2022-08-26T04:57:57.818Z,99347.06
2022-08-26T04:58:29.772Z,99350.41
2022-08-26T04:59:04.426Z,99351.59
2022-08-26T04:59:39.983Z,99349.22
2022-08-26T05:00:13.857Z,99353.75
2022-08-26T05:00:49.616Z,99354.66
2022-08-26T05:01:22.866Z,99353.44
2022-08-26T05:01:57.365Z,99355.53
2022-08-26T05:02:31.510Z,99353.03
2022-08-26T05:03:03.656Z,99350.50
2022-08-26T05:03:36.378Z,99346.44
2022-08-26T05:04:08.743Z,99350.09
2022-08-26T05:04:43.515Z,99347.91
2022-08-26T05:05:15.455Z,99352.94
2022-08-26T05:05:50.914Z,99350.94
2022-08-26T05:06:22.879Z,99354.59
2022-08-26T05:07:02.203Z,99356.34
2022-08-26T05:07:35.372Z,99354.66
2022-08-26T05:08:07.673Z,99350.91
2022-08-26T05:08:41.134Z,99358.25
2022-08-26T05:09:14.488Z,99352.31
2022-08-26T05:09:47.310Z,99353.47
2022-08-26T05:10:19.548Z,99348.91
2022-08-26T05:10:57.677Z,99343.31
2022-08-26T05:11:29.720Z,99353.53
2022-08-26T05:12:01.672Z,99348.69
2022-08-26T05:12:35.141Z,99345.16
2022-08-26T05:13:11.098Z,99353.25
2022-08-26T05:13:43.980Z,99344.59
2022-08-26T05:14:16.639Z,99351.63
2022-08-26T05:14:48.621Z,99347.50
2022-08-26T05:15:20.504Z,99350.84
2022-08-26T05:15:52.665Z,99353.28
2022-08-26T05:16:24.920Z,99353.81
2022-08-26T05:16:56.868Z,99351.81
2022-08-26T05:17:29.120Z,99351.50
2022-08-26T05:18:01.155Z,99348.22
2022-08-26T05:18:34.164Z,99347.44
2022-08-26T05:19:08.553Z,99353.69
2022-08-26T05:19:42.992Z,99351.03
2022-08-26T05:20:15.018Z,99353.06
2022-08-26T05:20:53.896Z,99355.63
2022-08-26T05:21:29.161Z,99358.03
2022-08-26T05:22:01.172Z,99355.28
2022-08-26T05:22:33.086Z,99355.59
2022-08-26T05:23:04.985Z,99359.09
2022-08-26T05:23:38.596Z,99349.69
2022-08-26T05:24:13.328Z,99359.25
2022-08-26T05:24:46.519Z,99358.63
2022-08-26T05:25:18.578Z,99348.44
2022-08-26T05:25:57.071Z,99352.56
2022-08-26T05:26:31.533Z,99352.75
2022-08-26T05:27:03.898Z,99356.53
2022-08-26T05:27:43.533Z,99357.66
2022-08-26T05:28:18.105Z,99353.87
2022-08-26T05:28:50.682Z,99359.69
2022-08-26T05:29:26.578Z,99357.97
2022-08-26T05:29:59.023Z,99356.56
2022-08-26T05:30:31.518Z,99359.13
2022-08-26T05:31:16.038Z,99355.16
2022-08-26T05:31:52.719Z,99359.44
2022-08-26T05:32:24.754Z,99361.37
2022-08-26T05:32:56.733Z,99362.78
2022-08-26T05:33:29.420Z,99361.09
2022-08-26T05:34:03.965Z,99365.81
2022-08-26T05:34:37.523Z,99366.28
2022-08-26T05:35:10.903Z,99358.59
2022-08-26T05:35:44.723Z,99360.94
2022-08-26T05:36:20.341Z,99364.09
2022-08-26T05:36:54.174Z,99364.25
2022-08-26T05:37:26.586Z,99363.19
2022-08-26T05:38:00.570Z,99359.91
2022-08-26T05:38:32.472Z,99360.84
2022-08-26T05:39:06.780Z,99365.91
2022-08-26T05:39:38.768Z,99362.13
2022-08-26T05:40:15.799Z,99365.28
2022-08-26T05:40:52.596Z,99371.72
2022-08-26T05:41:34.295Z,99366.53
2022-08-26T05:42:08.449Z,99372.84
2022-08-26T05:42:41.466Z,99366.94
2022-08-26T05:43:14.279Z,99368.34
2022-08-26T05:43:46.360Z,99367.25
2022-08-26T05:44:21.022Z,99367.09
2022-08-26T05:44:56.216Z,99364.28
2022-08-26T05:45:28.597Z,99365.53
2022-08-26T05:46:06.657Z,99362.88
2022-08-26T05:46:40.261Z,99369.13
2022-08-26T05:47:12.420Z,99366.63
2022-08-26T05:47:44.349Z,99376.34
2022-08-26T05:48:22.625Z,99369.00
2022-08-26T05:48:57.164Z,99376.69
2022-08-26T05:49:29.074Z,99371.97
2022-08-26T05:50:05.233Z,99369.16
2022-08-26T05:50:43.124Z,99371.03
2022-08-26T05:51:15.578Z,99370.69
2022-08-26T05:51:48.109Z,99368.97
2022-08-26T05:52:20.428Z,99365.03
2022-08-26T05:52:52.370Z,99368.19
2022-08-26T05:53:26.024Z,99370.25
2022-08-26T05:53:58.914Z,99376.97
2022-08-26T05:54:30.832Z,99373.66
2022-08-26T05:55:02.710Z,99372.84
2022-08-26T05:55:34.831Z,99373.00
2022-08-26T05:56:09.406Z,99376.91
2022-08-26T05:56:41.848Z,99379.62
2022-08-26T05:57:15.984Z,99380.09
2022-08-26T05:57:50.457Z,99378.97
2022-08-26T05:58:23.185Z,99380.53
2022-08-26T05:58:56.375Z,99384.59
2022-08-26T05:59:30.717Z,99389.94
2022-08-26T06:00:05.565Z,99380.66
2022-08-26T06:00:45.229Z,99382.81
2022-08-26T06:01:20.436Z,99385.81
2022-08-26T06:01:55.081Z,99390.38
2022-08-26T06:02:27.272Z,99382.16
2022-08-26T06:02:59.288Z,99389.13
2022-08-26T06:03:33.980Z,99388.12
2022-08-26T06:04:07.960Z,99382.59
2022-08-26T06:04:39.890Z,99383.34
2022-08-26T06:05:11.829Z,99388.69
2022-08-26T06:05:44.085Z,99387.12
2022-08-26T06:06:20.256Z,99381.13
2022-08-26T06:06:59.634Z,99390.53
2022-08-26T06:07:50.217Z,99387.34
2022-08-26T06:08:22.493Z,99385.69
2022-08-26T06:08:55.339Z,99388.66
2022-08-26T06:09:27.409Z,99392.53
2022-08-26T06:10:21.666Z,99389.00
2022-08-26T06:10:54.792Z,99382.75
2022-08-26T06:11:28.270Z,99387.72
2022-08-26T06:12:01.865Z,99390.53
2022-08-26T06:12:34.221Z,99392.25
2022-08-26T06:13:09.283Z,99389.56
2022-08-26T06:13:44.727Z,99389.56
2022-08-26T06:14:17.837Z,99387.38
2022-08-26T06:14:51.225Z,99389.84
2022-08-26T06:15:23.614Z,99394.44
2022-08-26T06:15:56.925Z,99392.19
2022-08-26T06:16:31.588Z,99399.59
2022-08-26T06:17:04.303Z,99386.44
2022-08-26T06:17:36.201Z,99397.56
2022-08-26T06:18:08.461Z,99392.47
2022-08-26T06:18:44.240Z,99393.69
2022-08-26T06:19:16.275Z,99395.25
2022-08-26T06:19:48.712Z,99388.56
2022-08-26T06:20:20.736Z,99391.97
2022-08-26T06:20:58.012Z,99387.19
2022-08-26T06:21:33.434Z,99390.34
2022-08-26T06:22:25.579Z,99394.75
2022-08-26T06:23:16.551Z,99393.19
2022-08-26T06:24:09.506Z,99392.28
2022-08-26T06:24:59.897Z,99396.66
2022-08-26T06:25:38.106Z,99389.41
2022-08-26T06:26:10.938Z,99393.50
2022-08-26T06:26:50.507Z,99394.19
2022-08-26T06:27:23.208Z,99392.81
2022-08-26T06:27:55.572Z,99389.03
2022-08-26T06:28:27.949Z,99385.34
2022-08-26T06:29:00.689Z,99396.53
2022-08-26T06:29:37.571Z,99396.41
2022-08-26T06:30:10.485Z,99390.06
2022-08-26T06:30:42.719Z,99394.00
2022-08-26T06:31:15.799Z,99394.88
2022-08-26T06:31:48.359Z,99401.03
2022-08-26T06:32:20.277Z,99398.03
2022-08-26T06:32:52.502Z,99398.37
2022-08-26T06:33:27.965Z,99399.94
2022-08-26T06:34:00.390Z,99397.16
2022-08-26T06:34:33.873Z,99394.47
2022-08-26T06:35:06.477Z,99393.13
2022-08-26T06:35:45.669Z,99398.28
2022-08-26T06:36:23.500Z,99402.28
2022-08-26T06:36:57.850Z,99407.88
2022-08-26T06:37:29.763Z,99396.56
2022-08-26T06:38:02.629Z,99402.03
2022-08-26T06:38:35.406Z,99400.50
2022-08-26T06:39:11.167Z,99399.78
2022-08-26T06:39:43.630Z,99397.50
2022-08-26T06:40:15.638Z,99393.69
2022-08-26T06:40:50.582Z,99396.16
2022-08-26T06:41:23.320Z,99394.47
2022-08-26T06:41:56.117Z,99396.38
2022-08-26T06:42:29.733Z,99400.41
2022-08-26T06:43:03.514Z,99396.06
2022-08-26T06:43:35.509Z,99398.53
2022-08-26T06:44:08.021Z,99397.22
2022-08-26T06:44:41.014Z,99398.47
2022-08-26T06:45:13.068Z,99398.37
2022-08-26T06:45:48.883Z,99398.34